茨城 の空港の天気 - METARとTAF

茨城空港(百里飛行場) ( RJAH / IBR ) - 茨城県小美玉市
飛行場実況気象(Metar)
観測時間11/22 21:18 JST (11/22 12:18 UTC)
風向・風速北西 3m/s
視程10km以上
天気現象弱い雨
少しの雲 雲底高度 910m
全天の8割程度の雲 雲底高度 1520m
全天を覆う雲 雲底高度 2440m
気温8℃
湿度76%
気圧1015hPa
METARRJAH 221218Z 32005KT 9999 -RA FEW030 BKN050 OVC080 08/04 Q1015 RMK 2SC030 7SC050 8AS080 A2999
過去の天気等 Google飛行場航空写真 Wunderground天気予報

過去48時間のMETAR

飛行場予報(TAF)
発表時間: 11/22 20:11 JST (11/22 11:11 UTC)
予報対象時間: 22日21時 JST ~ 24日3時 JST
風向・風速北 3m/s
視程8,000m
少しの雲 雲底高度 460m
全天の8割程度の雲 雲底高度 910m
23日0時 JST ~ 23日2時 JST に徐々に
視程4,000m
天気現象弱いしゅう雨 もや
少しの雲 雲底高度 150m
全天の8割程度の雲 雲底高度 240m
23日3時 JST ~ 23日9時 JST に一時的に
視程2,000m
天気現象しゅう雨 もや
少しの雲 雲底高度 90m
全天の8割程度の雲 雲底高度 150m
23日12時 JST ~ 23日15時 JST に徐々に
視程10km以上
天気現象運行に影響にある天気現象が終了
少しの雲 雲底高度 910m
全天の4割程度の雲 雲底高度 1,370m
TAF RJAH 221111Z 2212/2318 35005KT 8000 FEW015 BKN030
BECMG 2215/2217 4000 -SHRA BR FEW005 BKN008
TEMPO 2218/2300 2000 SHRA BR FEW003 BKN005
BECMG 2303/2306 9999 NSW FEW030 SCT045
日本の空港のMETAR・TAFへのリンク

RJTT 東京国際空港
RJAA 新東京国際空港
RJBB 関西国際空港
RJOO 大阪空港
RJGG 中部国際空港
RJCC 新千歳空港
RJFF 福岡空港
ROAH 那覇空港


RJEC 旭川空港
RJCH 函館空港
RJCK 釧路空港
RJCM 女満別空港
RJCB 帯広空港
RJSA 青森空港
RJSS 仙台空港
RJSK 秋田空港
RJSF 福島空港
RJAH 茨城空港
RJSN 新潟空港
RJNT 富山空港
RJNK 小松飛行場
RJNS 静岡空港
RJOH 美保飛行場
RJOC 出雲空港
RJOB 岡山空港
RJOA 広島空港
RJOI 岩国飛行場
RJOT 高松空港
RJOM 松山空港
RJOK 高知空港
RJFR 北九州空港
RJFT 熊本空港
RJFU 長崎空港
RJFS 佐賀空港
RJFO 大分空港
RJFM 宮崎空港
RJFK 鹿児島空港
ROIG 石垣島空港
RJTY 横田飛行場
ROTM 普天間飛行場
RODN 嘉手納飛行場